sensor_id;sensor_type;location;lat;lon;timestamp;P1;durP1;ratioP1;P2;durP2;ratioP2
13083;SDS011;6608;48.790;9.198;2023-08-12T00:01:29;156.70;;;71.43;;
13083;SDS011;6608;48.790;9.198;2023-08-12T00:03:55;155.63;;;70.93;;
13083;SDS011;6608;48.790;9.198;2023-08-12T00:06:22;154.93;;;71.07;;
13083;SDS011;6608;48.790;9.198;2023-08-12T00:08:48;158.57;;;71.10;;
13083;SDS011;6608;48.790;9.198;2023-08-12T00:11:15;154.60;;;70.40;;
13083;SDS011;6608;48.790;9.198;2023-08-12T00:13:43;156.30;;;70.97;;
13083;SDS011;6608;48.790;9.198;2023-08-12T00:16:10;157.60;;;71.57;;
13083;SDS011;6608;48.790;9.198;2023-08-12T00:18:36;156.23;;;71.97;;
13083;SDS011;6608;48.790;9.198;2023-08-12T00:21:05;157.77;;;71.40;;
13083;SDS011;6608;48.790;9.198;2023-08-12T00:23:32;158.47;;;71.50;;
13083;SDS011;6608;48.790;9.198;2023-08-12T00:25:58;154.87;;;71.07;;
13083;SDS011;6608;48.790;9.198;2023-08-12T00:28:25;157.50;;;71.80;;
13083;SDS011;6608;48.790;9.198;2023-08-12T00:30:53;156.43;;;72.20;;
13083;SDS011;6608;48.790;9.198;2023-08-12T00:33:19;154.47;;;70.63;;
13083;SDS011;6608;48.790;9.198;2023-08-12T00:35:45;156.07;;;72.07;;
13083;SDS011;6608;48.790;9.198;2023-08-12T00:38:12;155.23;;;71.60;;
13083;SDS011;6608;48.790;9.198;2023-08-12T00:40:38;157.90;;;71.57;;
13083;SDS011;6608;48.790;9.198;2023-08-12T00:43:05;153.67;;;70.40;;
13083;SDS011;6608;48.790;9.198;2023-08-12T00:45:31;155.83;;;71.57;;
13083;SDS011;6608;48.790;9.198;2023-08-12T00:47:59;158.43;;;71.80;;
13083;SDS011;6608;48.790;9.198;2023-08-12T00:50:26;158.53;;;70.93;;
13083;SDS011;6608;48.790;9.198;2023-08-12T00:52:52;155.97;;;72.00;;
13083;SDS011;6608;48.790;9.198;2023-08-12T00:55:18;155.80;;;71.03;;
13083;SDS011;6608;48.790;9.198;2023-08-12T00:57:46;154.87;;;71.17;;
13083;SDS011;6608;48.790;9.198;2023-08-12T01:00:12;156.43;;;70.47;;
13083;SDS011;6608;48.790;9.198;2023-08-12T01:02:39;155.10;;;70.87;;
13083;SDS011;6608;48.790;9.198;2023-08-12T01:05:10;155.27;;;70.97;;
13083;SDS011;6608;48.790;9.198;2023-08-12T01:07:37;154.57;;;70.33;;
13083;SDS011;6608;48.790;9.198;2023-08-12T01:10:03;156.27;;;71.13;;
13083;SDS011;6608;48.790;9.198;2023-08-12T01:12:31;157.40;;;71.40;;
13083;SDS011;6608;48.790;9.198;2023-08-12T01:15:01;158.23;;;72.00;;
13083;SDS011;6608;48.790;9.198;2023-08-12T01:17:29;161.43;;;71.07;;
13083;SDS011;6608;48.790;9.198;2023-08-12T01:19:57;156.07;;;71.27;;
13083;SDS011;6608;48.790;9.198;2023-08-12T01:22:26;158.80;;;70.73;;
13083;SDS011;6608;48.790;9.198;2023-08-12T01:24:55;155.30;;;70.50;;
13083;SDS011;6608;48.790;9.198;2023-08-12T01:27:21;157.03;;;69.83;;
13083;SDS011;6608;48.790;9.198;2023-08-12T01:29:48;153.20;;;69.60;;
13083;SDS011;6608;48.790;9.198;2023-08-12T01:32:18;154.60;;;69.53;;
13083;SDS011;6608;48.790;9.198;2023-08-12T01:34:49;153.83;;;69.40;;
13083;SDS011;6608;48.790;9.198;2023-08-12T01:37:17;153.97;;;69.67;;
13083;SDS011;6608;48.790;9.198;2023-08-12T01:39:47;153.73;;;69.63;;
13083;SDS011;6608;48.790;9.198;2023-08-12T01:42:16;155.23;;;70.07;;
13083;SDS011;6608;48.790;9.198;2023-08-12T01:44:43;153.33;;;69.37;;
13083;SDS011;6608;48.790;9.198;2023-08-12T01:47:09;154.50;;;70.13;;
13083;SDS011;6608;48.790;9.198;2023-08-12T01:49:36;156.43;;;70.67;;
13083;SDS011;6608;48.790;9.198;2023-08-12T01:52:03;155.73;;;69.50;;
13083;SDS011;6608;48.790;9.198;2023-08-12T01:54:29;154.23;;;69.70;;
13083;SDS011;6608;48.790;9.198;2023-08-12T01:56:59;153.07;;;69.77;;
13083;SDS011;6608;48.790;9.198;2023-08-12T01:59:26;154.23;;;69.70;;
13083;SDS011;6608;48.790;9.198;2023-08-12T02:01:53;154.50;;;69.80;;
13083;SDS011;6608;48.790;9.198;2023-08-12T02:04:19;154.57;;;69.73;;
13083;SDS011;6608;48.790;9.198;2023-08-12T02:06:46;156.23;;;69.70;;
13083;SDS011;6608;48.790;9.198;2023-08-12T02:09:12;155.00;;;69.63;;
13083;SDS011;6608;48.790;9.198;2023-08-12T02:11:38;154.00;;;69.93;;
13083;SDS011;6608;48.790;9.198;2023-08-12T02:14:05;154.83;;;69.57;;
13083;SDS011;6608;48.790;9.198;2023-08-12T02:16:33;153.50;;;69.77;;
13083;SDS011;6608;48.790;9.198;2023-08-12T02:18:59;156.00;;;69.53;;
13083;SDS011;6608;48.790;9.198;2023-08-12T02:21:25;154.77;;;70.37;;
13083;SDS011;6608;48.790;9.198;2023-08-12T02:23:52;155.90;;;69.80;;
13083;SDS011;6608;48.790;9.198;2023-08-12T02:26:18;154.20;;;69.33;;
13083;SDS011;6608;48.790;9.198;2023-08-12T02:28:45;154.27;;;69.60;;
13083;SDS011;6608;48.790;9.198;2023-08-12T02:31:11;154.03;;;69.57;;
13083;SDS011;6608;48.790;9.198;2023-08-12T02:33:39;152.17;;;69.13;;
13083;SDS011;6608;48.790;9.198;2023-08-12T02:36:05;153.33;;;69.87;;
13083;SDS011;6608;48.790;9.198;2023-08-12T02:38:32;152.73;;;69.87;;
13083;SDS011;6608;48.790;9.198;2023-08-12T02:40:58;152.03;;;69.37;;
13083;SDS011;6608;48.790;9.198;2023-08-12T02:43:25;151.97;;;69.60;;
13083;SDS011;6608;48.790;9.198;2023-08-12T02:45:51;156.47;;;70.40;;
13083;SDS011;6608;48.790;9.198;2023-08-12T02:48:18;153.63;;;69.83;;
13083;SDS011;6608;48.790;9.198;2023-08-12T02:50:45;155.47;;;69.77;;
13083;SDS011;6608;48.790;9.198;2023-08-12T02:53:12;156.90;;;69.47;;
13083;SDS011;6608;48.790;9.198;2023-08-12T02:55:38;152.03;;;69.80;;
13083;SDS011;6608;48.790;9.198;2023-08-12T02:58:05;152.37;;;69.70;;
13083;SDS011;6608;48.790;9.198;2023-08-12T03:00:31;152.13;;;69.73;;
13083;SDS011;6608;48.790;9.198;2023-08-12T03:02:57;157.17;;;69.53;;
13083;SDS011;6608;48.790;9.198;2023-08-12T03:05:24;155.27;;;70.30;;
13083;SDS011;6608;48.790;9.198;2023-08-12T03:07:52;153.40;;;69.00;;
13083;SDS011;6608;48.790;9.198;2023-08-12T03:10:18;154.40;;;69.63;;
13083;SDS011;6608;48.790;9.198;2023-08-12T03:12:45;153.23;;;70.07;;
13083;SDS011;6608;48.790;9.198;2023-08-12T03:15:11;153.87;;;69.23;;
13083;SDS011;6608;48.790;9.198;2023-08-12T03:17:38;155.00;;;69.43;;
13083;SDS011;6608;48.790;9.198;2023-08-12T03:20:05;153.40;;;68.93;;
13083;SDS011;6608;48.790;9.198;2023-08-12T03:22:33;151.97;;;69.10;;
13083;SDS011;6608;48.790;9.198;2023-08-12T03:25:01;153.43;;;68.97;;
13083;SDS011;6608;48.790;9.198;2023-08-12T03:27:28;151.17;;;68.33;;
13083;SDS011;6608;48.790;9.198;2023-08-12T03:29:55;158.30;;;69.87;;
13083;SDS011;6608;48.790;9.198;2023-08-12T03:32:21;154.37;;;68.90;;
13083;SDS011;6608;48.790;9.198;2023-08-12T03:34:47;154.87;;;70.07;;
13083;SDS011;6608;48.790;9.198;2023-08-12T03:37:14;154.97;;;70.20;;
13083;SDS011;6608;48.790;9.198;2023-08-12T03:39:40;155.33;;;69.30;;
13083;SDS011;6608;48.790;9.198;2023-08-12T03:42:08;153.73;;;69.73;;
13083;SDS011;6608;48.790;9.198;2023-08-12T03:44:34;155.63;;;69.80;;
13083;SDS011;6608;48.790;9.198;2023-08-12T03:47:01;154.13;;;68.93;;
13083;SDS011;6608;48.790;9.198;2023-08-12T03:49:28;152.20;;;69.73;;
13083;SDS011;6608;48.790;9.198;2023-08-12T03:51:54;153.03;;;68.93;;
13083;SDS011;6608;48.790;9.198;2023-08-12T03:54:20;154.63;;;70.10;;
13083;SDS011;6608;48.790;9.198;2023-08-12T03:56:47;155.10;;;69.67;;
13083;SDS011;6608;48.790;9.198;2023-08-12T03:59:15;153.30;;;69.33;;
13083;SDS011;6608;48.790;9.198;2023-08-12T04:01:41;159.40;;;69.43;;
13083;SDS011;6608;48.790;9.198;2023-08-12T04:04:07;154.57;;;69.87;;
13083;SDS011;6608;48.790;9.198;2023-08-12T04:06:34;152.80;;;69.93;;
13083;SDS011;6608;48.790;9.198;2023-08-12T04:09:00;152.13;;;69.30;;
13083;SDS011;6608;48.790;9.198;2023-08-12T04:11:27;153.37;;;69.93;;
13083;SDS011;6608;48.790;9.198;2023-08-12T04:13:53;154.77;;;69.57;;
13083;SDS011;6608;48.790;9.198;2023-08-12T04:16:21;155.03;;;70.30;;
13083;SDS011;6608;48.790;9.198;2023-08-12T04:18:48;152.73;;;69.73;;
13083;SDS011;6608;48.790;9.198;2023-08-12T04:21:14;154.43;;;69.13;;
13083;SDS011;6608;48.790;9.198;2023-08-12T04:23:41;155.87;;;70.53;;
13083;SDS011;6608;48.790;9.198;2023-08-12T04:26:07;152.97;;;69.03;;
13083;SDS011;6608;48.790;9.198;2023-08-12T04:28:33;154.33;;;69.80;;
13083;SDS011;6608;48.790;9.198;2023-08-12T04:31:00;152.40;;;69.57;;
13083;SDS011;6608;48.790;9.198;2023-08-12T04:33:28;151.83;;;69.37;;
13083;SDS011;6608;48.790;9.198;2023-08-12T04:35:54;154.77;;;70.03;;
13083;SDS011;6608;48.790;9.198;2023-08-12T04:38:22;155.83;;;69.77;;
13083;SDS011;6608;48.790;9.198;2023-08-12T04:40:48;152.77;;;69.47;;
13083;SDS011;6608;48.790;9.198;2023-08-12T04:43:14;156.77;;;69.70;;
13083;SDS011;6608;48.790;9.198;2023-08-12T04:45:44;151.17;;;68.67;;
13083;SDS011;6608;48.790;9.198;2023-08-12T04:48:10;153.37;;;69.03;;
13083;SDS011;6608;48.790;9.198;2023-08-12T04:50:38;153.87;;;69.27;;
13083;SDS011;6608;48.790;9.198;2023-08-12T04:53:05;157.20;;;70.13;;
13083;SDS011;6608;48.790;9.198;2023-08-12T04:55:31;151.93;;;69.23;;
13083;SDS011;6608;48.790;9.198;2023-08-12T04:57:58;152.57;;;70.73;;
13083;SDS011;6608;48.790;9.198;2023-08-12T05:00:24;154.63;;;69.10;;
13083;SDS011;6608;48.790;9.198;2023-08-12T05:02:50;156.73;;;69.43;;
13083;SDS011;6608;48.790;9.198;2023-08-12T05:05:17;154.83;;;70.00;;
13083;SDS011;6608;48.790;9.198;2023-08-12T05:07:45;155.73;;;69.73;;
13083;SDS011;6608;48.790;9.198;2023-08-12T05:10:13;154.50;;;69.60;;
13083;SDS011;6608;48.790;9.198;2023-08-12T05:12:40;152.23;;;69.10;;
13083;SDS011;6608;48.790;9.198;2023-08-12T05:15:07;151.37;;;68.90;;
13083;SDS011;6608;48.790;9.198;2023-08-12T05:17:33;152.60;;;69.50;;
13083;SDS011;6608;48.790;9.198;2023-08-12T05:20:00;152.53;;;68.90;;
13083;SDS011;6608;48.790;9.198;2023-08-12T05:22:26;155.83;;;70.60;;
13083;SDS011;6608;48.790;9.198;2023-08-12T05:24:54;152.43;;;69.03;;
13083;SDS011;6608;48.790;9.198;2023-08-12T05:27:21;153.30;;;69.70;;
13083;SDS011;6608;48.790;9.198;2023-08-12T05:29:47;158.53;;;71.03;;
13083;SDS011;6608;48.790;9.198;2023-08-12T05:32:13;153.90;;;69.60;;
13083;SDS011;6608;48.790;9.198;2023-08-12T05:34:40;153.67;;;70.30;;
13083;SDS011;6608;48.790;9.198;2023-08-12T05:37:06;152.43;;;69.47;;
13083;SDS011;6608;48.790;9.198;2023-08-12T05:39:34;151.90;;;68.90;;
13083;SDS011;6608;48.790;9.198;2023-08-12T05:42:01;157.40;;;70.90;;
13083;SDS011;6608;48.790;9.198;2023-08-12T05:44:28;152.57;;;69.53;;
13083;SDS011;6608;48.790;9.198;2023-08-12T05:46:54;157.40;;;69.83;;
13083;SDS011;6608;48.790;9.198;2023-08-12T05:49:21;154.17;;;69.93;;
13083;SDS011;6608;48.790;9.198;2023-08-12T05:51:47;158.80;;;70.13;;
13083;SDS011;6608;48.790;9.198;2023-08-12T05:54:14;153.03;;;69.67;;
13083;SDS011;6608;48.790;9.198;2023-08-12T05:56:40;156.77;;;70.20;;
13083;SDS011;6608;48.790;9.198;2023-08-12T05:59:08;157.83;;;70.53;;
13083;SDS011;6608;48.790;9.198;2023-08-12T06:01:34;155.90;;;70.10;;
13083;SDS011;6608;48.790;9.198;2023-08-12T06:04:01;154.07;;;69.43;;
13083;SDS011;6608;48.790;9.198;2023-08-12T06:06:27;153.53;;;69.43;;
13083;SDS011;6608;48.790;9.198;2023-08-12T06:08:53;156.43;;;70.67;;
13083;SDS011;6608;48.790;9.198;2023-08-12T06:11:20;155.57;;;71.00;;
13083;SDS011;6608;48.790;9.198;2023-08-12T06:13:46;158.67;;;70.80;;
13083;SDS011;6608;48.790;9.198;2023-08-12T06:16:14;157.73;;;69.57;;
13083;SDS011;6608;48.790;9.198;2023-08-12T06:18:40;155.90;;;70.00;;
13083;SDS011;6608;48.790;9.198;2023-08-12T06:21:07;155.37;;;70.43;;
13083;SDS011;6608;48.790;9.198;2023-08-12T06:23:33;158.03;;;71.00;;
13083;SDS011;6608;48.790;9.198;2023-08-12T06:26:00;155.87;;;70.50;;
13083;SDS011;6608;48.790;9.198;2023-08-12T06:28:26;154.07;;;70.07;;
13083;SDS011;6608;48.790;9.198;2023-08-12T06:30:53;154.93;;;70.47;;
13083;SDS011;6608;48.790;9.198;2023-08-12T06:33:20;154.87;;;70.70;;
13083;SDS011;6608;48.790;9.198;2023-08-12T06:35:47;154.17;;;70.40;;
13083;SDS011;6608;48.790;9.198;2023-08-12T06:38:13;155.17;;;70.87;;
13083;SDS011;6608;48.790;9.198;2023-08-12T06:40:40;152.93;;;70.37;;
13083;SDS011;6608;48.790;9.198;2023-08-12T06:43:06;157.60;;;71.03;;
13083;SDS011;6608;48.790;9.198;2023-08-12T06:45:33;155.57;;;70.53;;
13083;SDS011;6608;48.790;9.198;2023-08-12T06:48:00;153.33;;;69.90;;
13083;SDS011;6608;48.790;9.198;2023-08-12T06:50:28;157.17;;;70.73;;
13083;SDS011;6608;48.790;9.198;2023-08-12T06:52:55;156.60;;;71.63;;
13083;SDS011;6608;48.790;9.198;2023-08-12T06:55:22;154.70;;;71.00;;
13083;SDS011;6608;48.790;9.198;2023-08-12T06:57:48;155.77;;;71.20;;
13083;SDS011;6608;48.790;9.198;2023-08-12T07:00:15;154.50;;;71.13;;
13083;SDS011;6608;48.790;9.198;2023-08-12T07:02:41;158.63;;;71.77;;
13083;SDS011;6608;48.790;9.198;2023-08-12T07:05:08;155.60;;;71.00;;
13083;SDS011;6608;48.790;9.198;2023-08-12T07:07:36;155.30;;;71.40;;
13083;SDS011;6608;48.790;9.198;2023-08-12T07:10:02;154.83;;;70.17;;
13083;SDS011;6608;48.790;9.198;2023-08-12T07:12:29;155.47;;;70.80;;
13083;SDS011;6608;48.790;9.198;2023-08-12T07:14:56;154.70;;;71.27;;
13083;SDS011;6608;48.790;9.198;2023-08-12T07:17:22;159.63;;;71.47;;
13083;SDS011;6608;48.790;9.198;2023-08-12T07:19:49;154.27;;;70.73;;
13083;SDS011;6608;48.790;9.198;2023-08-12T07:22:15;156.63;;;71.67;;
13083;SDS011;6608;48.790;9.198;2023-08-12T07:24:45;153.67;;;71.00;;
13083;SDS011;6608;48.790;9.198;2023-08-12T07:27:12;158.20;;;71.27;;
13083;SDS011;6608;48.790;9.198;2023-08-12T07:29:38;155.40;;;71.27;;
13083;SDS011;6608;48.790;9.198;2023-08-12T07:32:06;155.93;;;71.63;;
13083;SDS011;6608;48.790;9.198;2023-08-12T07:34:32;155.23;;;70.77;;
13083;SDS011;6608;48.790;9.198;2023-08-12T07:36:59;160.13;;;70.93;;
13083;SDS011;6608;48.790;9.198;2023-08-12T07:39:25;157.87;;;72.30;;
13083;SDS011;6608;48.790;9.198;2023-08-12T07:41:53;162.10;;;72.67;;
13083;SDS011;6608;48.790;9.198;2023-08-12T07:44:19;156.73;;;72.20;;
13083;SDS011;6608;48.790;9.198;2023-08-12T07:46:46;158.23;;;72.10;;
13083;SDS011;6608;48.790;9.198;2023-08-12T07:49:12;165.67;;;73.17;;
13083;SDS011;6608;48.790;9.198;2023-08-12T07:51:39;158.53;;;72.83;;
13083;SDS011;6608;48.790;9.198;2023-08-12T07:54:05;158.50;;;74.07;;
13083;SDS011;6608;48.790;9.198;2023-08-12T07:56:32;155.57;;;74.27;;
13083;SDS011;6608;48.790;9.198;2023-08-12T07:59:00;159.93;;;73.90;;
13083;SDS011;6608;48.790;9.198;2023-08-12T08:01:26;154.63;;;74.45;;
13083;SDS011;6608;48.790;9.198;2023-08-12T08:03:53;157.10;;;74.35;;
13083;SDS011;6608;48.790;9.198;2023-08-12T08:06:19;153.15;;;74.03;;
13083;SDS011;6608;48.790;9.198;2023-08-12T08:08:46;155.15;;;75.15;;
13083;SDS011;6608;48.790;9.198;2023-08-12T08:11:12;154.10;;;75.22;;
13083;SDS011;6608;48.790;9.198;2023-08-12T08:13:39;156.93;;;75.70;;
13083;SDS011;6608;48.790;9.198;2023-08-12T08:16:07;154.98;;;75.38;;
13083;SDS011;6608;48.790;9.198;2023-08-12T08:18:33;157.70;;;76.65;;
13083;SDS011;6608;48.790;9.198;2023-08-12T08:20:59;154.25;;;75.82;;
13083;SDS011;6608;48.790;9.198;2023-08-12T08:23:26;153.68;;;75.50;;
13083;SDS011;6608;48.790;9.198;2023-08-12T08:25:52;151.95;;;75.82;;
13083;SDS011;6608;48.790;9.198;2023-08-12T08:28:19;153.90;;;76.68;;
13083;SDS011;6608;48.790;9.198;2023-08-12T08:30:45;152.93;;;76.70;;
13083;SDS011;6608;48.790;9.198;2023-08-12T08:33:13;157.18;;;76.85;;
13083;SDS011;6608;48.790;9.198;2023-08-12T08:35:39;152.85;;;76.50;;
13083;SDS011;6608;48.790;9.198;2023-08-12T08:38:06;153.02;;;76.38;;
13083;SDS011;6608;48.790;9.198;2023-08-12T08:40:32;154.35;;;76.80;;
13083;SDS011;6608;48.790;9.198;2023-08-12T08:42:59;155.23;;;76.93;;
13083;SDS011;6608;48.790;9.198;2023-08-12T08:45:28;153.82;;;77.60;;
13083;SDS011;6608;48.790;9.198;2023-08-12T08:47:58;153.73;;;77.18;;
13083;SDS011;6608;48.790;9.198;2023-08-12T08:50:26;152.85;;;78.03;;
13083;SDS011;6608;48.790;9.198;2023-08-12T08:52:54;150.88;;;78.07;;
13083;SDS011;6608;48.790;9.198;2023-08-12T08:55:21;150.82;;;77.82;;
13083;SDS011;6608;48.790;9.198;2023-08-12T08:57:48;155.48;;;77.93;;
13083;SDS011;6608;48.790;9.198;2023-08-12T09:00:15;149.43;;;77.82;;
13083;SDS011;6608;48.790;9.198;2023-08-12T09:02:42;146.73;;;77.47;;
13083;SDS011;6608;48.790;9.198;2023-08-12T09:05:09;151.43;;;79.18;;
13083;SDS011;6608;48.790;9.198;2023-08-12T09:07:37;147.85;;;77.68;;
13083;SDS011;6608;48.790;9.198;2023-08-12T09:10:05;146.55;;;78.32;;
13083;SDS011;6608;48.790;9.198;2023-08-12T09:12:33;148.43;;;77.75;;
13083;SDS011;6608;48.790;9.198;2023-08-12T09:15:01;147.43;;;78.30;;
13083;SDS011;6608;48.790;9.198;2023-08-12T09:17:28;148.57;;;78.18;;
13083;SDS011;6608;48.790;9.198;2023-08-12T09:19:54;147.20;;;78.05;;
13083;SDS011;6608;48.790;9.198;2023-08-12T09:22:20;146.10;;;77.93;;
13083;SDS011;6608;48.790;9.198;2023-08-12T09:24:51;149.80;;;78.18;;
13083;SDS011;6608;48.790;9.198;2023-08-12T09:27:22;145.10;;;78.28;;
13083;SDS011;6608;48.790;9.198;2023-08-12T09:29:48;150.35;;;78.47;;
13083;SDS011;6608;48.790;9.198;2023-08-12T09:32:17;147.43;;;78.70;;
13083;SDS011;6608;48.790;9.198;2023-08-12T09:34:47;145.70;;;78.72;;
13083;SDS011;6608;48.790;9.198;2023-08-12T09:37:13;145.07;;;78.63;;
13083;SDS011;6608;48.790;9.198;2023-08-12T09:39:40;143.82;;;77.75;;
13083;SDS011;6608;48.790;9.198;2023-08-12T09:42:08;145.75;;;79.03;;
13083;SDS011;6608;48.790;9.198;2023-08-12T09:44:35;146.02;;;78.43;;
13083;SDS011;6608;48.790;9.198;2023-08-12T09:47:02;141.48;;;78.07;;
13083;SDS011;6608;48.790;9.198;2023-08-12T09:49:28;145.52;;;78.22;;
13083;SDS011;6608;48.790;9.198;2023-08-12T09:51:55;144.48;;;77.28;;
13083;SDS011;6608;48.790;9.198;2023-08-12T09:54:22;143.32;;;78.00;;
13083;SDS011;6608;48.790;9.198;2023-08-12T09:56:49;142.48;;;77.88;;
13083;SDS011;6608;48.790;9.198;2023-08-12T09:59:20;147.40;;;78.43;;
13083;SDS011;6608;48.790;9.198;2023-08-12T10:01:49;144.93;;;77.97;;
13083;SDS011;6608;48.790;9.198;2023-08-12T10:04:16;147.63;;;77.28;;
13083;SDS011;6608;48.790;9.198;2023-08-12T10:06:43;148.27;;;77.40;;
13083;SDS011;6608;48.790;9.198;2023-08-12T10:09:10;155.32;;;77.28;;
13083;SDS011;6608;48.790;9.198;2023-08-12T10:11:36;152.25;;;76.93;;
13083;SDS011;6608;48.790;9.198;2023-08-12T10:14:04;152.52;;;77.65;;
13083;SDS011;6608;48.790;9.198;2023-08-12T10:16:32;155.80;;;77.10;;
13083;SDS011;6608;48.790;9.198;2023-08-12T10:18:59;155.02;;;76.95;;
13083;SDS011;6608;48.790;9.198;2023-08-12T10:21:26;150.85;;;75.65;;
13083;SDS011;6608;48.790;9.198;2023-08-12T10:23:53;152.85;;;75.80;;
13083;SDS011;6608;48.790;9.198;2023-08-12T10:26:20;153.10;;;75.20;;
13083;SDS011;6608;48.790;9.198;2023-08-12T10:28:48;155.77;;;75.55;;
13083;SDS011;6608;48.790;9.198;2023-08-12T10:31:14;153.52;;;74.97;;
13083;SDS011;6608;48.790;9.198;2023-08-12T10:33:42;153.88;;;75.63;;
13083;SDS011;6608;48.790;9.198;2023-08-12T10:36:09;152.80;;;74.45;;
13083;SDS011;6608;48.790;9.198;2023-08-12T10:38:35;152.20;;;74.78;;
13083;SDS011;6608;48.790;9.198;2023-08-12T10:41:17;153.25;;;75.13;;
13083;SDS011;6608;48.790;9.198;2023-08-12T10:43:53;151.30;;;74.28;;
13083;SDS011;6608;48.790;9.198;2023-08-12T10:46:23;149.82;;;74.85;;
13083;SDS011;6608;48.790;9.198;2023-08-12T10:49:03;151.65;;;75.20;;
13083;SDS011;6608;48.790;9.198;2023-08-12T10:54:21;149.65;;;75.15;;
13083;SDS011;6608;48.790;9.198;2023-08-12T10:57:04;149.57;;;75.15;;
13083;SDS011;6608;48.790;9.198;2023-08-12T11:02:16;148.90;;;74.97;;
13083;SDS011;6608;48.790;9.198;2023-08-12T11:04:44;151.35;;;74.65;;
13083;SDS011;6608;48.790;9.198;2023-08-12T11:07:17;149.73;;;74.47;;
13083;SDS011;6608;48.790;9.198;2023-08-12T11:09:43;151.38;;;75.22;;
13083;SDS011;6608;48.790;9.198;2023-08-12T11:12:11;147.38;;;74.95;;
13083;SDS011;6608;48.790;9.198;2023-08-12T11:14:47;151.32;;;77.35;;
13083;SDS011;6608;48.790;9.198;2023-08-12T11:17:13;148.65;;;76.68;;
13083;SDS011;6608;48.790;9.198;2023-08-12T11:19:40;147.45;;;76.13;;
13083;SDS011;6608;48.790;9.198;2023-08-12T11:22:08;150.43;;;76.07;;
13083;SDS011;6608;48.790;9.198;2023-08-12T11:24:37;148.40;;;76.45;;
13083;SDS011;6608;48.790;9.198;2023-08-12T11:27:04;148.40;;;75.90;;
13083;SDS011;6608;48.790;9.198;2023-08-12T11:29:31;149.35;;;76.47;;
13083;SDS011;6608;48.790;9.198;2023-08-12T11:31:57;152.95;;;75.45;;
13083;SDS011;6608;48.790;9.198;2023-08-12T11:34:23;149.35;;;75.78;;
13083;SDS011;6608;48.790;9.198;2023-08-12T11:36:50;149.52;;;75.57;;
13083;SDS011;6608;48.790;9.198;2023-08-12T11:39:18;150.63;;;75.35;;
13083;SDS011;6608;48.790;9.198;2023-08-12T11:41:45;150.00;;;76.07;;
13083;SDS011;6608;48.790;9.198;2023-08-12T11:44:11;151.70;;;75.32;;
13083;SDS011;6608;48.790;9.198;2023-08-12T11:46:38;149.73;;;76.10;;
13083;SDS011;6608;48.790;9.198;2023-08-12T11:49:04;148.88;;;76.00;;
13083;SDS011;6608;48.790;9.198;2023-08-12T11:51:31;153.07;;;76.13;;
13083;SDS011;6608;48.790;9.198;2023-08-12T11:53:57;147.27;;;75.63;;
13083;SDS011;6608;48.790;9.198;2023-08-12T11:56:25;151.13;;;75.50;;
13083;SDS011;6608;48.790;9.198;2023-08-12T11:58:52;149.30;;;75.75;;
13083;SDS011;6608;48.790;9.198;2023-08-12T12:01:19;149.50;;;76.15;;
13083;SDS011;6608;48.790;9.198;2023-08-12T12:03:49;152.70;;;76.50;;
13083;SDS011;6608;48.790;9.198;2023-08-12T12:06:16;152.98;;;76.05;;
13083;SDS011;6608;48.790;9.198;2023-08-12T12:08:43;157.30;;;76.60;;
13083;SDS011;6608;48.790;9.198;2023-08-12T12:11:10;153.57;;;75.13;;
13083;SDS011;6608;48.790;9.198;2023-08-12T12:13:38;150.98;;;74.43;;
13083;SDS011;6608;48.790;9.198;2023-08-12T12:16:09;151.77;;;73.07;;
13083;SDS011;6608;48.790;9.198;2023-08-12T12:18:36;154.32;;;72.95;;
13083;SDS011;6608;48.790;9.198;2023-08-12T12:21:02;156.85;;;72.78;;
13083;SDS011;6608;48.790;9.198;2023-08-12T12:23:29;154.32;;;73.35;;
13083;SDS011;6608;48.790;9.198;2023-08-12T12:25:57;154.90;;;73.10;;
13083;SDS011;6608;48.790;9.198;2023-08-12T12:28:23;155.00;;;72.33;;
13083;SDS011;6608;48.790;9.198;2023-08-12T12:30:51;155.67;;;72.27;;
13083;SDS011;6608;48.790;9.198;2023-08-12T12:33:17;161.73;;;72.03;;
13083;SDS011;6608;48.790;9.198;2023-08-12T12:35:44;153.27;;;71.60;;
13083;SDS011;6608;48.790;9.198;2023-08-12T12:38:10;157.33;;;71.83;;
13083;SDS011;6608;48.790;9.198;2023-08-12T12:40:37;159.37;;;71.67;;
13083;SDS011;6608;48.790;9.198;2023-08-12T12:43:04;157.77;;;71.60;;
13083;SDS011;6608;48.790;9.198;2023-08-12T12:45:30;155.60;;;71.40;;
13083;SDS011;6608;48.790;9.198;2023-08-12T12:47:58;156.20;;;71.60;;
13083;SDS011;6608;48.790;9.198;2023-08-12T12:50:24;158.23;;;72.17;;
13083;SDS011;6608;48.790;9.198;2023-08-12T12:52:51;157.80;;;72.33;;
13083;SDS011;6608;48.790;9.198;2023-08-12T12:55:17;157.37;;;71.57;;
13083;SDS011;6608;48.790;9.198;2023-08-12T12:57:45;158.07;;;71.57;;
13083;SDS011;6608;48.790;9.198;2023-08-12T13:00:12;157.20;;;72.27;;
13083;SDS011;6608;48.790;9.198;2023-08-12T13:02:41;156.70;;;71.37;;
13083;SDS011;6608;48.790;9.198;2023-08-12T13:05:09;160.50;;;71.70;;
13083;SDS011;6608;48.790;9.198;2023-08-12T13:07:35;155.57;;;70.73;;
13083;SDS011;6608;48.790;9.198;2023-08-12T13:10:02;154.97;;;70.67;;
13083;SDS011;6608;48.790;9.198;2023-08-12T13:12:28;157.73;;;71.03;;
13083;SDS011;6608;48.790;9.198;2023-08-12T13:14:55;155.23;;;70.90;;
13083;SDS011;6608;48.790;9.198;2023-08-12T13:17:21;157.37;;;71.50;;
13083;SDS011;6608;48.790;9.198;2023-08-12T13:19:48;157.17;;;70.63;;
13083;SDS011;6608;48.790;9.198;2023-08-12T13:22:15;157.37;;;71.17;;
13083;SDS011;6608;48.790;9.198;2023-08-12T13:24:42;158.43;;;71.50;;
13083;SDS011;6608;48.790;9.198;2023-08-12T13:27:08;154.97;;;71.43;;
13083;SDS011;6608;48.790;9.198;2023-08-12T13:29:35;154.83;;;71.90;;
13083;SDS011;6608;48.790;9.198;2023-08-12T13:32:01;157.30;;;71.03;;
13083;SDS011;6608;48.790;9.198;2023-08-12T13:34:27;155.50;;;71.53;;
13083;SDS011;6608;48.790;9.198;2023-08-12T13:36:54;156.50;;;71.37;;
13083;SDS011;6608;48.790;9.198;2023-08-12T13:39:22;157.60;;;71.03;;
13083;SDS011;6608;48.790;9.198;2023-08-12T13:41:48;157.37;;;71.40;;
13083;SDS011;6608;48.790;9.198;2023-08-12T13:44:15;156.67;;;71.03;;
13083;SDS011;6608;48.790;9.198;2023-08-12T13:46:41;156.67;;;71.23;;
13083;SDS011;6608;48.790;9.198;2023-08-12T13:49:08;156.10;;;72.10;;
13083;SDS011;6608;48.790;9.198;2023-08-12T13:51:34;156.00;;;72.00;;
13083;SDS011;6608;48.790;9.198;2023-08-12T13:54:00;154.63;;;71.03;;
13083;SDS011;6608;48.790;9.198;2023-08-12T13:56:28;154.67;;;71.43;;
13083;SDS011;6608;48.790;9.198;2023-08-12T13:58:54;154.70;;;72.07;;
13083;SDS011;6608;48.790;9.198;2023-08-12T14:01:21;159.57;;;73.53;;
13083;SDS011;6608;48.790;9.198;2023-08-12T14:03:47;156.13;;;72.27;;
13083;SDS011;6608;48.790;9.198;2023-08-12T14:06:14;155.93;;;72.03;;
13083;SDS011;6608;48.790;9.198;2023-08-12T14:08:40;154.90;;;72.20;;
13083;SDS011;6608;48.790;9.198;2023-08-12T14:11:07;155.97;;;71.93;;
13083;SDS011;6608;48.790;9.198;2023-08-12T14:13:34;158.43;;;72.67;;
13083;SDS011;6608;48.790;9.198;2023-08-12T14:16:01;154.43;;;72.07;;
13083;SDS011;6608;48.790;9.198;2023-08-12T14:18:27;159.07;;;70.93;;
13083;SDS011;6608;48.790;9.198;2023-08-12T14:20:54;154.20;;;72.07;;
13083;SDS011;6608;48.790;9.198;2023-08-12T14:23:20;154.70;;;72.33;;
13083;SDS011;6608;48.790;9.198;2023-08-12T14:25:47;154.27;;;71.90;;